createdAt,value
2022-10-05T00:09:54.279Z,87.54572
2022-10-05T00:19:55.416Z,87.01521
2022-10-05T00:29:56.528Z,86.99257
2022-10-05T00:39:57.626Z,87.01427
2022-10-05T00:49:58.729Z,86.66592
2022-10-05T01:00:00.054Z,86.10149
2022-10-05T01:10:01.472Z,85.80599
2022-10-05T01:20:03.223Z,85.50402
2022-10-05T01:30:04.903Z,85.57596
2022-10-05T01:40:06.564Z,85.20691
2022-10-05T01:50:08.267Z,85.01917
2022-10-05T02:00:09.734Z,84.7414
2022-10-05T02:10:11.379Z,84.76465
2022-10-05T02:20:12.716Z,84.55305
2022-10-05T02:30:16.630Z,84.45347
2022-10-05T02:40:18.046Z,84.28687
2022-10-05T02:50:19.171Z,83.98064
2022-10-05T03:00:20.485Z,84.09952
2022-10-05T03:10:21.588Z,84.40846
2022-10-05T03:20:22.702Z,84.39427
2022-10-05T03:30:23.854Z,84.28609
2022-10-05T03:40:25.005Z,84.79732
2022-10-05T03:50:26.110Z,84.71404
2022-10-05T04:00:27.199Z,84.90582
2022-10-05T04:10:28.361Z,85.25549
2022-10-05T04:20:29.640Z,85.22023
2022-10-05T04:30:30.984Z,85.26632
2022-10-05T04:40:32.099Z,85.85409
2022-10-05T04:50:33.229Z,85.90189
2022-10-05T05:00:34.449Z,86.23211
2022-10-05T05:10:35.675Z,86.15371
2022-10-05T05:20:36.781Z,85.71707
2022-10-05T05:30:37.909Z,85.68752
2022-10-05T05:40:39.079Z,85.39036
2022-10-05T05:50:40.355Z,85.35384
2022-10-05T06:00:41.549Z,85.38166
2022-10-05T06:10:42.662Z,85.70386
2022-10-05T06:20:43.786Z,85.65176
2022-10-05T06:30:44.911Z,86.02653
2022-10-05T06:40:46.020Z,86.3207
2022-10-05T06:50:47.105Z,85.83326
2022-10-05T07:00:48.641Z,85.48078
2022-10-05T07:10:49.848Z,85.63921
2022-10-05T07:20:51.203Z,85.48979
2022-10-05T07:30:52.475Z,85.13755
2022-10-05T07:40:53.618Z,85.45588
2022-10-05T07:50:54.749Z,85.43516
2022-10-05T08:00:55.929Z,85.28596
2022-10-05T08:10:57.073Z,84.51767
2022-10-05T08:20:58.232Z,82.1887
2022-10-05T08:30:59.390Z,81.96065
2022-10-05T08:41:00.797Z,81.83965
2022-10-05T08:51:02.515Z,82.91563
2022-10-05T09:01:04.372Z,82.75628
2022-10-05T09:11:06.162Z,82.75005
2022-10-05T09:21:07.902Z,82.00211
2022-10-05T09:31:09.446Z,81.3802
2022-10-05T09:41:11.070Z,80.90892
2022-10-05T09:51:12.449Z,78.35011
2022-10-05T10:01:22.209Z,81.03078
2022-10-05T10:11:33.618Z,80.88727
2022-10-05T10:21:34.743Z,83.75953
2022-10-05T10:31:35.951Z,93.75008
2022-10-05T10:41:37.048Z,96.08178
2022-10-05T10:51:38.187Z,97.48123
2022-10-05T11:01:39.345Z,97.34017
2022-10-05T11:11:45.671Z,97.80727
2022-10-05T11:21:46.823Z,98.02727
2022-10-05T11:31:48.381Z,97.96445
2022-10-05T11:41:50.379Z,98.35291
2022-10-05T11:51:51.993Z,97.89206
2022-10-05T12:01:53.286Z,98.1165
2022-10-05T12:11:57.732Z,98.07796
2022-10-05T12:21:59.183Z,97.73682
2022-10-05T12:32:00.534Z,97.6927
2022-10-05T12:42:02.294Z,97.23062
2022-10-05T12:52:04.056Z,96.89735
2022-10-05T13:02:06.409Z,96.66047
2022-10-05T13:12:08.212Z,78.35011
2022-10-05T13:22:09.661Z,96.0672
2022-10-05T13:32:11.172Z,96.5005
2022-10-05T13:42:12.306Z,96.55331
2022-10-05T13:52:13.442Z,96.29671
2022-10-05T14:02:14.632Z,96.17529
2022-10-05T14:12:15.800Z,96.58639
2022-10-05T14:22:16.933Z,96.35978
2022-10-05T14:32:18.183Z,96.02795
2022-10-05T14:42:19.327Z,95.22843
2022-10-05T14:52:20.787Z,94.55823
2022-10-05T15:02:21.939Z,94.44789
2022-10-05T15:12:23.119Z,94.42162
2022-10-05T15:22:24.249Z,94.34842
2022-10-05T15:32:25.403Z,94.3679
2022-10-05T15:42:26.552Z,94.33117
2022-10-05T15:52:27.694Z,93.92343
2022-10-05T16:02:29.042Z,93.02181
2022-10-05T16:12:30.583Z,91.8542
2022-10-05T16:22:31.720Z,91.17589
2022-10-05T16:32:33.155Z,90.96115
2022-10-05T16:42:34.512Z,90.92362
2022-10-05T16:52:35.698Z,90.85965
2022-10-05T17:02:36.884Z,90.57726
2022-10-05T17:12:38.157Z,92.03339
2022-10-05T17:22:41.202Z,88.22179
2022-10-05T17:32:42.393Z,91.24518
2022-10-05T17:42:43.530Z,90.95485
2022-10-05T17:52:44.656Z,91.2374
2022-10-05T18:02:45.869Z,90.62766
2022-10-05T18:12:47.109Z,88.80963
2022-10-05T18:22:48.213Z,86.00676
2022-10-05T18:32:49.388Z,86.26432
2022-10-05T18:42:50.753Z,86.20475
2022-10-05T18:52:51.908Z,86.68945
2022-10-05T19:02:53.150Z,84.65337
2022-10-05T19:12:54.362Z,84.05442
2022-10-05T19:22:55.479Z,83.50692
2022-10-05T19:32:56.623Z,81.89923
2022-10-05T19:42:57.754Z,81.41027
2022-10-05T19:52:58.893Z,82.23612
2022-10-05T20:03:00.075Z,82.22939
2022-10-05T20:13:02.404Z,82.89232
2022-10-05T20:23:04.176Z,83.38979
2022-10-05T20:33:06.126Z,83.73967
2022-10-05T20:43:07.802Z,84.09092
2022-10-05T20:53:11.919Z,83.81597
2022-10-05T21:03:13.396Z,82.93281
2022-10-05T21:13:14.706Z,81.90608
2022-10-05T21:23:15.883Z,81.38999
2022-10-05T21:33:17.012Z,80.39869
2022-10-05T21:43:18.138Z,81.95434
2022-10-05T21:53:19.523Z,82.22002
2022-10-05T22:03:20.968Z,82.47539
2022-10-05T22:13:22.222Z,83.04906
2022-10-05T22:23:23.346Z,83.96288
2022-10-05T22:33:24.469Z,84.30959
2022-10-05T22:43:25.638Z,84.87594
2022-10-05T22:53:26.985Z,85.79356
2022-10-05T23:03:28.100Z,85.88982
2022-10-05T23:13:29.243Z,86.05421
2022-10-05T23:23:30.595Z,86.25604
2022-10-05T23:33:31.771Z,86.34173
2022-10-05T23:43:32.904Z,86.71584
2022-10-05T23:53:34.247Z,86.90402
